This demonstration page uses our WeatherBlox Daily Observations layout. Learn more.

Left ArrowRight Arrow

39.92423, -83.80882

Hourly Observations for March 7, 2020

Temp ( °F °C ) Dew Point ( °F °C ) Humidity (%) Winds ( mph kmh ) Pressure ( in mb ) Visibility ( mi km ) Precip ( " mm )
12:56 am 00:56 Cloudy 32 0 24 -4.4 73 73 N 13 20 30.46 1032 10 16.0934 0 0
1:53 am 01:53 Cloudy 30 -1 25 -4 80 80 NNW 14 22 30.49 1032 10 16.0934 0 0
1:56 am 01:56 Cloudy 32 0 24 -4.4 73 73 N 12 19 30.47 1032 10 16.0934 0 0
2:56 am 02:56 Cloudy 31 -0.6 24 -4.4 76 76 N 10 17 30.48 1032 10 16.0934 0 0
3:56 am 03:56 Cloudy 31 -0.6 24 -4.4 76 76 N 9 15 30.48 1032 10 16.0934 0 0
4:56 am 04:56 Cloudy 31 -0.6 24 -4.4 76 76 N 10 17 30.5 1033 10 16.0934 0 0
5:56 am 05:56 Cloudy 30 -1.1 24 -4.4 79 79 N 7 11 30.53 1034 10 16.0934 0 0
6:56 am 06:56 Cloudy 30 -1.1 24 -4.4 79 79 N 7 11 30.55 1035 10 16.0934 0 0
7:56 am 07:56 Cloudy 29 -1.7 22 -5.6 75 75 NNE 3 6 30.57 1035 10 16.0934 0 0
8:37 am 08:37 Partly Cloudy 30 -1 23 -5 75 75 ENE 8 13 30.59 1036 10 16.0934 0 0
8:56 am 08:56 Sunny 32 0 23 -5 69 69 NE 5 7 30.59 1036 10 16.0934 0 0
9:56 am 09:56 Sunny 33 0.6 22 -5.6 64 64 Calm 30.6 1036 10 16.0934 0 0
10:56 am 10:56 Sunny 35 1.7 23 -5 61 61 WSW 3 6 30.6 1036 10 16.0934 0 0
11:56 am 11:56 Sunny 39 3.9 28 -2.2 65 65 WSW 7 11 30.59 1036 10 16.0934 0 0
12:56 pm 12:56 Sunny 40 4.4 23 -5 51 51 Calm 30.57 1035 10 16.0934 0 0
1:56 pm 13:56 Sunny 43 6.1 25 -3.9 49 49 SSW 6 9 30.54 1034 10 16.0934 0 0
2:56 pm 14:56 Sunny 44 6.7 22 -5.6 41 41 WSW 3 6 30.52 1034 10 16.0934 0 0
3:56 pm 15:56 Sunny 46 7.8 25 -3.9 44 44 SSW 3 6 30.5 1033 10 16.0934 0 0
4:56 pm 16:56 Sunny 46 7.8 22 -5.6 38 38 SSW 6 9 30.49 1032 10 16.0934 0 0
5:56 pm 17:56 Sunny 45 7.2 24 -4.4 44 44 S 6 9 30.48 1032 10 16.0934 0 0
6:56 pm 18:56 Clear 42 5.6 22 -5.6 45 45 S 5 7 30.49 1032 10 16.0934 0 0
7:56 pm 19:56 Clear 39 3.9 27 -2.8 62 62 SSE 5 7 30.5 1033 10 16.0934 0 0
8:56 pm 20:56 Clear 38 3.3 26 -3.3 62 62 S 5 7 30.5 1033 10 16.0934 0 0
9:56 pm 21:56 Clear 37 2.8 25 -3.9 62 62 S 5 7 30.51 1033 10 16.0934 0 0
10:56 pm 22:56 Clear 38 3.3 24 -4.4 57 57 S 7 11 30.5 1033 10 16.0934 0 0
11:56 pm 23:56 Clear 36 2.2 25 -3.9 64 64 SSW 6 9 30.49 1033 10 16.0934 0 0

Powered by AerisWeather